createdAt,value
2019-03-24T05:07:34.035Z,33.17
2019-03-24T05:10:53.562Z,36.40
2019-03-24T05:14:12.131Z,24.97
2019-03-24T05:17:30.994Z,33.60
2019-03-24T05:20:49.369Z,29.00
2019-03-24T05:24:07.961Z,34.50
2019-03-24T05:27:26.841Z,27.40
2019-03-24T05:30:45.097Z,30.63
2019-03-24T05:34:04.079Z,27.97
2019-03-24T05:37:23.051Z,27.40
2019-03-24T05:40:41.296Z,25.17
2019-03-24T05:43:59.850Z,30.50
2019-03-24T05:47:18.729Z,19.93
2019-03-24T05:50:37.587Z,30.03
2019-03-24T05:53:57.110Z,26.87
2019-03-24T05:57:15.358Z,23.13
2019-03-24T06:00:34.269Z,28.20
2019-03-24T06:03:52.927Z,25.17
2019-03-24T06:07:11.812Z,26.60
2019-03-24T06:10:30.016Z,24.57
2019-03-24T06:13:49.146Z,24.40
2019-03-24T06:17:08.095Z,20.33
2019-03-24T06:20:26.996Z,16.90
2019-03-24T06:23:46.079Z,28.13
2019-03-24T06:27:04.879Z,26.73
2019-03-24T06:30:23.067Z,28.37
2019-03-24T06:33:42.697Z,19.23
2019-03-24T06:37:01.230Z,19.00
2019-03-24T06:40:19.978Z,15.57
2019-03-24T06:43:38.127Z,14.77
2019-03-24T06:46:57.080Z,21.50
2019-03-24T06:50:15.341Z,12.90
2019-03-24T06:53:34.273Z,17.43
2019-03-24T06:56:52.681Z,17.67
2019-03-24T07:00:11.636Z,13.90
2019-03-24T07:03:29.903Z,16.10
2019-03-24T07:06:48.110Z,11.77
2019-03-24T07:10:07.159Z,17.93
2019-03-24T07:13:26.347Z,14.67
2019-03-24T07:16:44.703Z,19.00
2019-03-24T07:20:03.647Z,19.80
2019-03-24T07:23:21.770Z,14.97
2019-03-24T07:26:39.914Z,19.27
2019-03-24T07:29:58.153Z,10.80
2019-03-24T07:33:16.543Z,10.93
2019-03-24T07:36:34.709Z,14.57
2019-03-24T07:39:53.070Z,15.10
2019-03-24T07:43:12.168Z,15.27
2019-03-24T07:46:30.393Z,20.10
2019-03-24T07:49:48.694Z,13.47
2019-03-24T07:53:05.918Z,16.00
2019-03-24T07:56:32.085Z,12.47
2019-03-24T08:03:43.495Z,13.97
2019-03-24T08:07:09.814Z,10.67
2019-03-24T08:10:36.155Z,20.70
2019-03-24T08:14:02.361Z,12.63
2019-03-24T08:17:28.629Z,15.93
2019-03-24T08:20:54.920Z,19.43
2019-03-24T08:24:21.178Z,14.60
2019-03-24T08:27:47.509Z,17.10
2019-03-24T08:31:33.004Z,16.43
2019-03-24T08:34:59.200Z,13.50
2019-03-24T08:38:25.435Z,14.20
2019-03-24T08:41:51.861Z,17.13
2019-03-24T08:44:59.962Z,38.43
2019-03-24T08:48:18.806Z,21.07
2019-03-24T08:51:36.885Z,22.63
2019-03-24T08:54:55.068Z,21.97
2019-03-24T09:01:43.791Z,19.80
2019-03-24T09:05:03.405Z,18.83
2019-03-24T09:08:21.968Z,25.50
2019-03-24T09:11:40.904Z,25.07
2019-03-24T09:14:48.454Z,22.53
2019-03-24T09:18:32.248Z,25.33
2019-03-24T09:21:58.497Z,23.47
2019-03-24T09:25:24.725Z,24.70
2019-03-24T09:28:50.928Z,18.47
2019-03-24T09:32:17.109Z,21.00
2019-03-24T09:35:43.478Z,26.07
2019-03-24T09:39:10.024Z,34.77
2019-03-24T09:42:36.245Z,28.50
2019-03-24T09:45:56.198Z,27.83
2019-03-24T09:49:14.648Z,27.60
2019-03-24T09:52:33.331Z,44.40
2019-03-24T09:55:51.436Z,28.50
2019-03-24T09:59:10.434Z,33.60
2019-03-24T10:02:28.866Z,34.70
2019-03-24T10:05:47.266Z,40.53
2019-03-24T10:09:06.152Z,30.53
2019-03-24T10:12:25.250Z,34.60
2019-03-24T10:15:44.354Z,36.50
2019-03-24T10:19:13.311Z,32.63
2019-03-24T10:22:23.564Z,29.97
2019-03-24T10:25:41.818Z,39.53
2019-03-24T10:29:00.246Z,37.53
2019-03-24T10:32:19.280Z,35.30
2019-03-24T10:35:38.121Z,30.70
2019-03-24T10:38:56.962Z,37.93
2019-03-24T10:42:15.152Z,31.47
2019-03-24T10:45:34.131Z,34.20
2019-03-24T10:48:52.546Z,32.03
2019-03-24T10:52:11.521Z,33.27
2019-03-24T10:55:30.423Z,30.87
2019-03-24T10:58:49.412Z,35.70
2019-03-24T11:02:08.300Z,29.37
2019-03-24T11:05:26.715Z,28.77
2019-03-24T11:08:37.398Z,28.37
2019-03-24T11:11:47.985Z,30.13
2019-03-24T11:14:55.577Z,32.77
2019-03-24T11:18:03.213Z,29.27
2019-03-24T11:21:10.829Z,24.60
2019-03-24T11:24:18.390Z,29.40
2019-03-24T11:27:25.971Z,37.97
2019-03-24T11:30:33.543Z,32.57
2019-03-24T11:33:41.093Z,26.50
2019-03-24T11:36:48.706Z,28.20
2019-03-24T11:39:56.253Z,29.80
2019-03-24T11:43:03.880Z,30.70
2019-03-24T11:46:11.658Z,28.27
2019-03-24T11:49:19.775Z,31.63
2019-03-24T11:52:27.403Z,41.07
2019-03-24T11:55:34.932Z,32.23
2019-03-24T11:58:42.712Z,36.57
2019-03-24T12:01:50.343Z,31.70
2019-03-24T12:04:57.870Z,31.17
2019-03-24T12:08:05.931Z,36.23
2019-03-24T12:11:13.577Z,28.37
2019-03-24T12:14:21.226Z,31.43
2019-03-24T12:17:28.796Z,29.97
2019-03-24T12:20:36.511Z,40.27
2019-03-24T12:23:44.256Z,28.53
2019-03-24T12:26:51.922Z,28.47
2019-03-24T12:29:59.433Z,31.77
2019-03-24T12:33:07.546Z,28.57
2019-03-24T12:36:15.047Z,32.60
2019-03-24T12:39:22.543Z,34.43
2019-03-24T12:42:30.070Z,30.40
2019-03-24T12:45:37.599Z,31.70
2019-03-24T12:48:45.198Z,33.30
2019-03-24T12:51:52.805Z,32.10
2019-03-24T12:55:00.343Z,31.70
2019-03-24T12:58:07.806Z,23.03
2019-03-24T13:01:15.244Z,30.73
2019-03-24T13:04:22.720Z,31.03
2019-03-24T13:07:30.223Z,34.20
2019-03-24T13:10:37.658Z,32.13
2019-03-24T13:13:45.365Z,27.80
2019-03-24T13:16:52.885Z,24.03
2019-03-24T13:20:00.489Z,25.37
2019-03-24T13:23:07.936Z,22.63
2019-03-24T13:26:15.457Z,26.37
2019-03-24T13:29:41.712Z,24.97
2019-03-24T13:32:50.710Z,20.67
2019-03-24T13:36:10.128Z,24.97
2019-03-24T13:39:17.771Z,21.57
2019-03-24T13:42:27.818Z,22.70
2019-03-24T13:45:35.766Z,30.83
2019-03-24T13:48:43.337Z,25.40
2019-03-24T13:51:50.771Z,27.73
2019-03-24T13:54:58.283Z,20.73
2019-03-24T13:58:06.271Z,19.57
2019-03-24T14:01:14.016Z,22.50
2019-03-24T14:04:21.528Z,28.97
2019-03-24T14:07:28.996Z,24.63
2019-03-24T14:10:36.512Z,24.80
2019-03-24T14:13:44.126Z,25.73
2019-03-24T14:16:51.568Z,21.87
2019-03-24T14:19:59.082Z,19.70
2019-03-24T14:23:06.538Z,21.93
2019-03-24T14:26:13.954Z,21.03
2019-03-24T14:29:21.488Z,26.17
2019-03-24T14:32:28.978Z,20.50
2019-03-24T14:35:43.050Z,21.57
2019-03-24T14:38:50.743Z,20.63
2019-03-24T14:41:58.403Z,20.00
2019-03-24T14:45:06.981Z,26.57
2019-03-24T14:48:14.765Z,17.83
2019-03-24T14:51:25.463Z,22.77
2019-03-24T14:54:33.130Z,24.37
2019-03-24T14:57:41.867Z,23.43
2019-03-24T15:00:49.566Z,20.00
2019-03-24T15:03:57.324Z,20.53
2019-03-24T15:07:04.991Z,24.67
2019-03-24T15:10:12.647Z,24.27
2019-03-24T15:13:20.210Z,27.80
2019-03-24T15:16:28.241Z,21.53
2019-03-24T15:19:35.910Z,19.60
2019-03-24T15:22:43.597Z,20.17
2019-03-24T15:25:51.191Z,17.57
2019-03-24T15:28:58.903Z,20.23
2019-03-24T15:32:06.565Z,19.50
2019-03-24T15:35:14.179Z,23.50
2019-03-24T15:38:21.794Z,20.30
2019-03-24T15:41:29.432Z,20.23
2019-03-24T15:44:37.087Z,19.40
2019-03-24T15:47:44.917Z,17.13
2019-03-24T15:50:52.510Z,16.70
2019-03-24T15:54:00.126Z,20.13
2019-03-24T15:57:07.716Z,25.03
2019-03-24T16:00:15.801Z,21.00
2019-03-24T16:03:23.469Z,23.30
2019-03-24T16:06:31.045Z,17.83
2019-03-24T16:09:38.619Z,18.07
2019-03-24T16:12:46.287Z,19.53
2019-03-24T16:15:53.908Z,17.37
2019-03-24T16:19:01.431Z,15.20
2019-03-24T16:22:08.964Z,16.80
2019-03-24T16:25:16.584Z,20.63
2019-03-24T16:28:24.074Z,19.20
2019-03-24T16:31:31.538Z,19.80
2019-03-24T16:34:39.035Z,14.47
2019-03-24T16:37:46.710Z,16.57
2019-03-24T16:40:54.317Z,14.00
2019-03-24T16:44:01.760Z,17.03
2019-03-24T16:47:15.354Z,17.37
2019-03-24T16:50:23.096Z,15.40
2019-03-24T16:53:30.470Z,13.80
2019-03-24T16:56:37.896Z,17.07
2019-03-24T16:59:48.359Z,15.67
2019-03-24T17:02:55.736Z,17.27
2019-03-24T17:06:03.282Z,17.63
2019-03-24T17:09:10.786Z,13.43
2019-03-24T17:12:18.269Z,11.33
2019-03-24T17:15:25.681Z,25.60
2019-03-24T17:18:33.124Z,16.83
2019-03-24T17:21:49.480Z,15.23
2019-03-24T17:24:49.800Z,15.80
2019-03-24T18:02:13.957Z,19.33
2019-03-24T18:05:14.470Z,17.17
2019-03-24T18:21:26.319Z,26.00
2019-03-24T18:24:33.810Z,19.53
2019-03-24T18:51:55.911Z,13.43
2019-03-24T18:55:03.540Z,8.30
2019-03-24T18:58:10.981Z,8.33
2019-03-24T19:01:18.499Z,39.60
2019-03-24T19:04:29.156Z,8.27
2019-03-24T19:07:39.480Z,8.47
2019-03-24T19:21:02.754Z,11.10
2019-03-24T19:24:15.715Z,4.87
2019-03-24T19:27:24.774Z,6.57
2019-03-24T19:30:43.283Z,9.37
2019-03-24T19:33:50.707Z,7.17
2019-03-24T19:37:03.353Z,9.70
2019-03-24T21:22:19.418Z,11.37
2019-03-24T21:25:26.911Z,11.37
2019-03-24T21:28:34.353Z,9.20
2019-03-24T21:31:41.815Z,8.37
2019-03-24T21:34:50.563Z,7.13
2019-03-24T21:37:58.590Z,8.37
2019-03-24T21:41:06.104Z,10.40
2019-03-24T21:44:13.547Z,12.20
2019-03-24T21:47:21.086Z,9.13
2019-03-24T21:50:30.344Z,8.60
2019-03-24T21:53:40.867Z,6.40
2019-03-24T21:56:47.050Z,14.35
2019-03-24T21:59:54.463Z,7.55
2019-03-24T22:03:03.783Z,6.50
2019-03-24T22:06:13.588Z,10.23
2019-03-24T22:09:23.551Z,5.25
2019-03-24T22:12:33.573Z,8.60
2019-03-24T22:15:41.164Z,11.30
2019-03-24T22:18:48.659Z,9.43
2019-03-24T22:21:56.085Z,8.48
2019-03-24T22:25:03.505Z,5.55
2019-03-24T22:28:11.012Z,7.87
2019-03-24T22:31:18.566Z,8.75
2019-03-24T22:34:26.703Z,5.65
2019-03-24T22:37:34.215Z,6.22
2019-03-24T22:40:41.675Z,4.97
2019-03-24T22:43:49.182Z,5.35
2019-03-24T22:46:56.661Z,5.25
2019-03-24T22:50:04.334Z,9.70
2019-03-24T22:53:11.847Z,7.35
2019-03-24T22:56:19.255Z,5.72
2019-03-24T22:59:26.739Z,6.85
2019-03-24T23:02:34.227Z,12.10
2019-03-24T23:05:41.730Z,7.97
2019-03-24T23:08:49.201Z,5.53
2019-03-24T23:11:56.707Z,10.38
2019-03-24T23:15:24.152Z,4.45
2019-03-24T23:18:50.309Z,13.88
2019-03-24T23:26:07.042Z,9.15
2019-03-24T23:29:33.200Z,7.47
2019-03-24T23:32:59.903Z,8.63
2019-03-24T23:36:07.283Z,5.83
2019-03-24T23:43:13.392Z,5.05
2019-03-24T23:46:38.286Z,8.35
2019-03-24T23:49:56.769Z,3.77
2019-03-24T23:53:14.937Z,7.20
2019-03-24T23:56:33.242Z,6.78
2019-03-24T23:59:52.184Z,7.92
